sensor_id;sensor_type;location;lat;lon;timestamp;P1;durP1;ratioP1;P2;durP2;ratioP2
5900;SDS011;2976;49.764;9.796;2024-03-17T00:01:49;3.00;;;2.20;;
5900;SDS011;2976;49.764;9.796;2024-03-17T00:04:15;4.70;;;2.40;;
5900;SDS011;2976;49.764;9.796;2024-03-17T00:06:40;4.20;;;2.70;;
5900;SDS011;2976;49.764;9.796;2024-03-17T00:09:06;2.93;;;2.30;;
5900;SDS011;2976;49.764;9.796;2024-03-17T00:11:34;4.40;;;2.00;;
5900;SDS011;2976;49.764;9.796;2024-03-17T00:14:00;2.33;;;2.13;;
5900;SDS011;2976;49.764;9.796;2024-03-17T00:16:26;4.40;;;2.90;;
5900;SDS011;2976;49.764;9.796;2024-03-17T00:18:52;3.90;;;2.17;;
5900;SDS011;2976;49.764;9.796;2024-03-17T00:21:18;5.43;;;2.53;;
5900;SDS011;2976;49.764;9.796;2024-03-17T00:23:47;7.13;;;2.10;;
5900;SDS011;2976;49.764;9.796;2024-03-17T00:26:14;5.20;;;2.60;;
5900;SDS011;2976;49.764;9.796;2024-03-17T00:28:40;2.80;;;2.50;;
5900;SDS011;2976;49.764;9.796;2024-03-17T00:31:06;1.83;;;1.70;;
5900;SDS011;2976;49.764;9.796;2024-03-17T00:33:34;5.83;;;2.73;;
5900;SDS011;2976;49.764;9.796;2024-03-17T00:36:00;2.27;;;2.07;;
5900;SDS011;2976;49.764;9.796;2024-03-17T00:38:26;2.33;;;2.13;;
5900;SDS011;2976;49.764;9.796;2024-03-17T00:40:51;4.07;;;2.93;;
5900;SDS011;2976;49.764;9.796;2024-03-17T00:43:17;3.30;;;2.37;;
5900;SDS011;2976;49.764;9.796;2024-03-17T00:45:42;2.60;;;2.40;;
5900;SDS011;2976;49.764;9.796;2024-03-17T00:48:08;2.73;;;2.40;;
5900;SDS011;2976;49.764;9.796;2024-03-17T00:50:34;3.57;;;2.70;;
5900;SDS011;2976;49.764;9.796;2024-03-17T00:53:00;7.50;;;3.03;;
5900;SDS011;2976;49.764;9.796;2024-03-17T00:55:28;5.10;;;3.43;;
5900;SDS011;2976;49.764;9.796;2024-03-17T00:57:53;5.97;;;3.17;;
5900;SDS011;2976;49.764;9.796;2024-03-17T01:00:19;7.17;;;3.40;;
5900;SDS011;2976;49.764;9.796;2024-03-17T01:02:45;4.50;;;3.20;;
5900;SDS011;2976;49.764;9.796;2024-03-17T01:05:11;5.00;;;3.13;;
5900;SDS011;2976;49.764;9.796;2024-03-17T01:07:36;3.20;;;2.80;;
5900;SDS011;2976;49.764;9.796;2024-03-17T01:10:02;4.57;;;2.53;;
5900;SDS011;2976;49.764;9.796;2024-03-17T01:12:28;6.07;;;2.90;;
5900;SDS011;2976;49.764;9.796;2024-03-17T01:14:54;4.00;;;2.80;;
5900;SDS011;2976;49.764;9.796;2024-03-17T01:17:19;4.97;;;2.30;;
5900;SDS011;2976;49.764;9.796;2024-03-17T01:19:45;4.23;;;2.60;;
5900;SDS011;2976;49.764;9.796;2024-03-17T01:22:11;4.50;;;2.97;;
5900;SDS011;2976;49.764;9.796;2024-03-17T01:24:36;5.57;;;3.03;;
5900;SDS011;2976;49.764;9.796;2024-03-17T01:27:06;4.60;;;3.43;;
5900;SDS011;2976;49.764;9.796;2024-03-17T01:29:31;3.63;;;3.10;;
5900;SDS011;2976;49.764;9.796;2024-03-17T01:31:57;3.40;;;2.97;;
5900;SDS011;2976;49.764;9.796;2024-03-17T01:34:23;3.20;;;2.90;;
5900;SDS011;2976;49.764;9.796;2024-03-17T01:36:48;5.13;;;3.50;;
5900;SDS011;2976;49.764;9.796;2024-03-17T01:39:14;5.20;;;3.40;;
5900;SDS011;2976;49.764;9.796;2024-03-17T01:41:41;4.10;;;2.77;;
5900;SDS011;2976;49.764;9.796;2024-03-17T01:44:07;3.77;;;2.43;;
5900;SDS011;2976;49.764;9.796;2024-03-17T01:46:33;4.40;;;3.10;;
5900;SDS011;2976;49.764;9.796;2024-03-17T01:48:59;2.60;;;2.40;;
5900;SDS011;2976;49.764;9.796;2024-03-17T01:51:24;4.13;;;2.70;;
5900;SDS011;2976;49.764;9.796;2024-03-17T01:53:50;4.07;;;2.20;;
5900;SDS011;2976;49.764;9.796;2024-03-17T01:56:16;4.57;;;3.50;;
5900;SDS011;2976;49.764;9.796;2024-03-17T01:58:45;2.33;;;2.13;;
5900;SDS011;2976;49.764;9.796;2024-03-17T02:01:11;2.90;;;2.70;;
5900;SDS011;2976;49.764;9.796;2024-03-17T02:03:41;5.07;;;2.00;;
5900;SDS011;2976;49.764;9.796;2024-03-17T02:06:07;3.03;;;2.33;;
5900;SDS011;2976;49.764;9.796;2024-03-17T02:08:50;5.37;;;2.13;;
5900;SDS011;2976;49.764;9.796;2024-03-17T02:11:26;7.93;;;2.70;;
5900;SDS011;2976;49.764;9.796;2024-03-17T02:13:53;2.90;;;2.67;;
5900;SDS011;2976;49.764;9.796;2024-03-17T02:16:20;8.53;;;3.03;;
5900;SDS011;2976;49.764;9.796;2024-03-17T02:18:46;4.83;;;2.20;;
5900;SDS011;2976;49.764;9.796;2024-03-17T02:21:15;4.97;;;3.30;;
5900;SDS011;2976;49.764;9.796;2024-03-17T02:23:41;4.00;;;3.27;;
5900;SDS011;2976;49.764;9.796;2024-03-17T02:26:07;4.10;;;3.30;;
5900;SDS011;2976;49.764;9.796;2024-03-17T02:28:43;2.87;;;2.67;;
5900;SDS011;2976;49.764;9.796;2024-03-17T02:31:11;3.07;;;2.47;;
5900;SDS011;2976;49.764;9.796;2024-03-17T02:33:40;2.37;;;2.17;;
5900;SDS011;2976;49.764;9.796;2024-03-17T02:36:05;4.50;;;2.50;;
5900;SDS011;2976;49.764;9.796;2024-03-17T02:38:37;4.70;;;2.63;;
5900;SDS011;2976;49.764;9.796;2024-03-17T02:41:22;6.90;;;3.40;;
5900;SDS011;2976;49.764;9.796;2024-03-17T02:43:48;3.30;;;3.00;;
5900;SDS011;2976;49.764;9.796;2024-03-17T02:46:14;2.67;;;2.43;;
5900;SDS011;2976;49.764;9.796;2024-03-17T02:48:42;5.60;;;2.77;;
5900;SDS011;2976;49.764;9.796;2024-03-17T02:51:12;2.80;;;2.57;;
5900;SDS011;2976;49.764;9.796;2024-03-17T02:53:42;4.00;;;2.80;;
5900;SDS011;2976;49.764;9.796;2024-03-17T02:56:10;4.27;;;2.77;;
5900;SDS011;2976;49.764;9.796;2024-03-17T02:58:36;5.77;;;3.40;;
5900;SDS011;2976;49.764;9.796;2024-03-17T03:01:06;6.07;;;3.80;;
5900;SDS011;2976;49.764;9.796;2024-03-17T03:03:32;3.50;;;2.63;;
5900;SDS011;2976;49.764;9.796;2024-03-17T03:05:58;5.17;;;2.80;;
5900;SDS011;2976;49.764;9.796;2024-03-17T03:08:25;3.80;;;2.80;;
5900;SDS011;2976;49.764;9.796;2024-03-17T03:10:51;2.50;;;2.27;;
5900;SDS011;2976;49.764;9.796;2024-03-17T03:13:17;5.37;;;3.00;;
5900;SDS011;2976;49.764;9.796;2024-03-17T03:15:43;5.53;;;3.10;;
5900;SDS011;2976;49.764;9.796;2024-03-17T03:18:08;5.40;;;3.33;;
5900;SDS011;2976;49.764;9.796;2024-03-17T03:20:34;6.67;;;2.70;;
5900;SDS011;2976;49.764;9.796;2024-03-17T03:23:00;3.20;;;2.90;;
5900;SDS011;2976;49.764;9.796;2024-03-17T03:25:27;3.30;;;2.60;;
5900;SDS011;2976;49.764;9.796;2024-03-17T03:27:53;4.50;;;2.83;;
5900;SDS011;2976;49.764;9.796;2024-03-17T03:30:21;2.83;;;2.63;;
5900;SDS011;2976;49.764;9.796;2024-03-17T03:32:47;3.37;;;3.03;;
5900;SDS011;2976;49.764;9.796;2024-03-17T03:35:13;6.43;;;3.63;;
5900;SDS011;2976;49.764;9.796;2024-03-17T03:37:39;4.10;;;3.40;;
5900;SDS011;2976;49.764;9.796;2024-03-17T03:40:06;6.33;;;2.90;;
5900;SDS011;2976;49.764;9.796;2024-03-17T03:42:53;8.00;;;4.10;;
5900;SDS011;2976;49.764;9.796;2024-03-17T03:45:19;5.20;;;3.00;;
5900;SDS011;2976;49.764;9.796;2024-03-17T03:47:45;5.20;;;3.97;;
5900;SDS011;2976;49.764;9.796;2024-03-17T03:50:11;4.67;;;3.10;;
5900;SDS011;2976;49.764;9.796;2024-03-17T03:52:39;12.03;;;3.17;;
5900;SDS011;2976;49.764;9.796;2024-03-17T03:55:06;7.67;;;3.53;;
5900;SDS011;2976;49.764;9.796;2024-03-17T03:57:38;6.13;;;3.70;;
5900;SDS011;2976;49.764;9.796;2024-03-17T04:00:04;4.67;;;3.87;;
5900;SDS011;2976;49.764;9.796;2024-03-17T04:02:40;4.37;;;3.20;;
5900;SDS011;2976;49.764;9.796;2024-03-17T04:05:07;3.40;;;2.43;;
5900;SDS011;2976;49.764;9.796;2024-03-17T04:07:33;4.77;;;3.30;;
5900;SDS011;2976;49.764;9.796;2024-03-17T04:10:00;7.63;;;3.30;;
5900;SDS011;2976;49.764;9.796;2024-03-17T04:12:29;5.80;;;3.20;;
5900;SDS011;2976;49.764;9.796;2024-03-17T04:14:56;7.80;;;3.20;;
5900;SDS011;2976;49.764;9.796;2024-03-17T04:17:22;4.00;;;3.17;;
5900;SDS011;2976;49.764;9.796;2024-03-17T04:19:48;3.23;;;2.93;;
5900;SDS011;2976;49.764;9.796;2024-03-17T04:22:18;7.33;;;3.53;;
5900;SDS011;2976;49.764;9.796;2024-03-17T04:24:45;7.30;;;2.90;;
5900;SDS011;2976;49.764;9.796;2024-03-17T04:27:11;4.60;;;3.23;;
5900;SDS011;2976;49.764;9.796;2024-03-17T04:29:38;3.20;;;2.33;;
5900;SDS011;2976;49.764;9.796;2024-03-17T04:32:04;3.33;;;2.83;;
5900;SDS011;2976;49.764;9.796;2024-03-17T04:34:30;2.70;;;2.50;;
5900;SDS011;2976;49.764;9.796;2024-03-17T04:36:56;5.93;;;2.73;;
5900;SDS011;2976;49.764;9.796;2024-03-17T04:39:23;4.20;;;2.53;;
5900;SDS011;2976;49.764;9.796;2024-03-17T04:41:49;2.77;;;2.50;;
5900;SDS011;2976;49.764;9.796;2024-03-17T04:44:15;3.40;;;3.10;;
5900;SDS011;2976;49.764;9.796;2024-03-17T04:46:42;4.50;;;3.20;;
5900;SDS011;2976;49.764;9.796;2024-03-17T04:49:07;3.33;;;2.20;;
5900;SDS011;2976;49.764;9.796;2024-03-17T04:51:33;2.63;;;2.40;;
5900;SDS011;2976;49.764;9.796;2024-03-17T04:53:59;3.27;;;2.27;;
5900;SDS011;2976;49.764;9.796;2024-03-17T04:56:25;4.13;;;2.60;;
5900;SDS011;2976;49.764;9.796;2024-03-17T04:58:51;5.40;;;2.80;;
5900;SDS011;2976;49.764;9.796;2024-03-17T05:01:16;5.17;;;3.20;;
5900;SDS011;2976;49.764;9.796;2024-03-17T05:03:42;5.50;;;2.70;;
5900;SDS011;2976;49.764;9.796;2024-03-17T05:06:08;4.63;;;2.70;;
5900;SDS011;2976;49.764;9.796;2024-03-17T05:08:34;4.87;;;3.87;;
5900;SDS011;2976;49.764;9.796;2024-03-17T05:11:00;7.80;;;3.60;;
5900;SDS011;2976;49.764;9.796;2024-03-17T05:13:30;4.33;;;3.37;;
5900;SDS011;2976;49.764;9.796;2024-03-17T05:16:01;4.40;;;3.10;;
5900;SDS011;2976;49.764;9.796;2024-03-17T05:18:28;5.90;;;3.70;;
5900;SDS011;2976;49.764;9.796;2024-03-17T05:21:04;6.83;;;3.50;;
5900;SDS011;2976;49.764;9.796;2024-03-17T05:23:31;4.60;;;2.60;;
5900;SDS011;2976;49.764;9.796;2024-03-17T05:25:58;7.93;;;2.97;;
5900;SDS011;2976;49.764;9.796;2024-03-17T05:28:24;3.30;;;3.00;;
5900;SDS011;2976;49.764;9.796;2024-03-17T05:30:52;5.43;;;3.60;;
5900;SDS011;2976;49.764;9.796;2024-03-17T05:33:20;4.47;;;3.10;;
5900;SDS011;2976;49.764;9.796;2024-03-17T05:38:26;6.80;;;4.07;;
5900;SDS011;2976;49.764;9.796;2024-03-17T05:40:55;5.20;;;3.67;;
5900;SDS011;2976;49.764;9.796;2024-03-17T05:43:23;4.60;;;3.10;;
5900;SDS011;2976;49.764;9.796;2024-03-17T05:45:50;4.73;;;3.47;;
5900;SDS011;2976;49.764;9.796;2024-03-17T05:48:16;4.53;;;3.50;;
5900;SDS011;2976;49.764;9.796;2024-03-17T05:50:42;7.90;;;4.40;;
5900;SDS011;2976;49.764;9.796;2024-03-17T05:53:07;11.53;;;3.80;;
5900;SDS011;2976;49.764;9.796;2024-03-17T05:55:35;4.43;;;3.30;;
5900;SDS011;2976;49.764;9.796;2024-03-17T05:58:01;2.70;;;2.50;;
5900;SDS011;2976;49.764;9.796;2024-03-17T06:00:27;4.57;;;3.60;;
5900;SDS011;2976;49.764;9.796;2024-03-17T06:02:52;4.57;;;3.40;;
5900;SDS011;2976;49.764;9.796;2024-03-17T06:05:18;6.77;;;4.20;;
5900;SDS011;2976;49.764;9.796;2024-03-17T06:07:43;6.77;;;4.50;;
5900;SDS011;2976;49.764;9.796;2024-03-17T06:10:09;9.70;;;3.93;;
5900;SDS011;2976;49.764;9.796;2024-03-17T06:12:34;7.20;;;4.53;;
5900;SDS011;2976;49.764;9.796;2024-03-17T06:15:01;4.33;;;3.13;;
5900;SDS011;2976;49.764;9.796;2024-03-17T06:17:28;4.40;;;3.00;;
5900;SDS011;2976;49.764;9.796;2024-03-17T06:19:53;5.30;;;3.20;;
5900;SDS011;2976;49.764;9.796;2024-03-17T06:22:19;3.20;;;2.40;;
5900;SDS011;2976;49.764;9.796;2024-03-17T06:24:44;2.60;;;2.40;;
5900;SDS011;2976;49.764;9.796;2024-03-17T06:27:10;6.47;;;3.40;;
5900;SDS011;2976;49.764;9.796;2024-03-17T06:29:35;3.90;;;2.70;;
5900;SDS011;2976;49.764;9.796;2024-03-17T06:32:01;5.30;;;3.20;;
5900;SDS011;2976;49.764;9.796;2024-03-17T06:34:27;3.47;;;3.17;;
5900;SDS011;2976;49.764;9.796;2024-03-17T06:36:52;8.60;;;4.00;;
5900;SDS011;2976;49.764;9.796;2024-03-17T06:39:18;14.60;;;4.00;;
5900;SDS011;2976;49.764;9.796;2024-03-17T06:41:46;4.80;;;3.63;;
5900;SDS011;2976;49.764;9.796;2024-03-17T06:44:11;7.53;;;4.40;;
5900;SDS011;2976;49.764;9.796;2024-03-17T06:46:37;5.83;;;3.70;;
5900;SDS011;2976;49.764;9.796;2024-03-17T06:49:03;6.60;;;3.47;;
5900;SDS011;2976;49.764;9.796;2024-03-17T06:51:28;6.43;;;3.77;;
5900;SDS011;2976;49.764;9.796;2024-03-17T06:53:54;5.47;;;3.30;;
5900;SDS011;2976;49.764;9.796;2024-03-17T06:56:19;4.70;;;3.50;;
5900;SDS011;2976;49.764;9.796;2024-03-17T06:58:45;4.20;;;3.43;;
5900;SDS011;2976;49.764;9.796;2024-03-17T07:01:10;2.97;;;2.70;;
5900;SDS011;2976;49.764;9.796;2024-03-17T07:03:36;4.70;;;2.90;;
5900;SDS011;2976;49.764;9.796;2024-03-17T07:06:02;6.67;;;3.10;;
5900;SDS011;2976;49.764;9.796;2024-03-17T07:08:28;4.23;;;3.00;;
5900;SDS011;2976;49.764;9.796;2024-03-17T07:11:01;2.53;;;2.33;;
5900;SDS011;2976;49.764;9.796;2024-03-17T07:13:40;2.97;;;2.73;;
5900;SDS011;2976;49.764;9.796;2024-03-17T07:16:07;3.43;;;3.13;;
5900;SDS011;2976;49.764;9.796;2024-03-17T07:18:32;6.23;;;3.23;;
5900;SDS011;2976;49.764;9.796;2024-03-17T07:20:59;2.50;;;2.30;;
5900;SDS011;2976;49.764;9.796;2024-03-17T07:23:25;3.03;;;2.70;;
5900;SDS011;2976;49.764;9.796;2024-03-17T07:25:53;6.53;;;2.67;;
5900;SDS011;2976;49.764;9.796;2024-03-17T07:28:20;3.80;;;2.90;;
5900;SDS011;2976;49.764;9.796;2024-03-17T07:30:47;5.17;;;3.30;;
5900;SDS011;2976;49.764;9.796;2024-03-17T07:33:16;5.27;;;3.67;;
5900;SDS011;2976;49.764;9.796;2024-03-17T07:38:14;3.80;;;3.30;;
5900;SDS011;2976;49.764;9.796;2024-03-17T07:40:40;3.30;;;3.00;;
5900;SDS011;2976;49.764;9.796;2024-03-17T07:43:06;3.40;;;3.20;;
5900;SDS011;2976;49.764;9.796;2024-03-17T07:45:32;4.97;;;2.97;;
5900;SDS011;2976;49.764;9.796;2024-03-17T07:47:57;2.77;;;2.40;;
5900;SDS011;2976;49.764;9.796;2024-03-17T07:50:23;2.23;;;2.03;;
5900;SDS011;2976;49.764;9.796;2024-03-17T07:52:49;2.60;;;2.47;;
5900;SDS011;2976;49.764;9.796;2024-03-17T07:55:15;2.70;;;2.50;;
5900;SDS011;2976;49.764;9.796;2024-03-17T07:57:40;3.00;;;2.80;;
5900;SDS011;2976;49.764;9.796;2024-03-17T08:00:06;8.00;;;3.43;;
5900;SDS011;2976;49.764;9.796;2024-03-17T08:02:47;3.13;;;2.90;;
5900;SDS011;2976;49.764;9.796;2024-03-17T08:05:13;2.87;;;2.47;;
5900;SDS011;2976;49.764;9.796;2024-03-17T08:07:39;4.93;;;2.80;;
5900;SDS011;2976;49.764;9.796;2024-03-17T08:10:07;3.80;;;3.13;;
5900;SDS011;2976;49.764;9.796;2024-03-17T08:12:33;3.43;;;2.53;;
5900;SDS011;2976;49.764;9.796;2024-03-17T08:14:58;2.70;;;2.40;;
5900;SDS011;2976;49.764;9.796;2024-03-17T08:17:24;3.07;;;2.73;;
5900;SDS011;2976;49.764;9.796;2024-03-17T08:19:50;4.87;;;2.70;;
5900;SDS011;2976;49.764;9.796;2024-03-17T08:22:16;2.37;;;2.27;;
5900;SDS011;2976;49.764;9.796;2024-03-17T08:24:42;3.70;;;2.50;;
5900;SDS011;2976;49.764;9.796;2024-03-17T08:27:08;2.20;;;1.70;;
5900;SDS011;2976;49.764;9.796;2024-03-17T08:29:34;4.13;;;2.33;;
5900;SDS011;2976;49.764;9.796;2024-03-17T08:31:59;2.70;;;2.40;;
5900;SDS011;2976;49.764;9.796;2024-03-17T08:34:25;2.33;;;2.17;;
5900;SDS011;2976;49.764;9.796;2024-03-17T08:36:51;2.47;;;2.27;;
5900;SDS011;2976;49.764;9.796;2024-03-17T08:39:16;3.70;;;2.33;;
5900;SDS011;2976;49.764;9.796;2024-03-17T08:41:42;2.60;;;2.20;;
5900;SDS011;2976;49.764;9.796;2024-03-17T08:44:09;1.77;;;1.67;;
5900;SDS011;2976;49.764;9.796;2024-03-17T08:46:35;3.93;;;2.40;;
5900;SDS011;2976;49.764;9.796;2024-03-17T08:49:00;5.23;;;2.10;;
5900;SDS011;2976;49.764;9.796;2024-03-17T08:51:26;2.40;;;1.60;;
5900;SDS011;2976;49.764;9.796;2024-03-17T08:53:52;5.30;;;2.40;;
5900;SDS011;2976;49.764;9.796;2024-03-17T08:56:18;3.80;;;1.90;;
5900;SDS011;2976;49.764;9.796;2024-03-17T08:58:45;3.53;;;2.43;;
5900;SDS011;2976;49.764;9.796;2024-03-17T09:01:11;2.87;;;2.40;;
5900;SDS011;2976;49.764;9.796;2024-03-17T09:03:40;2.60;;;1.67;;
5900;SDS011;2976;49.764;9.796;2024-03-17T09:06:15;2.20;;;2.00;;
5900;SDS011;2976;49.764;9.796;2024-03-17T09:08:41;2.83;;;1.70;;
5900;SDS011;2976;49.764;9.796;2024-03-17T09:11:12;2.17;;;1.40;;
5900;SDS011;2976;49.764;9.796;2024-03-17T09:13:38;3.03;;;1.50;;
5900;SDS011;2976;49.764;9.796;2024-03-17T09:16:04;7.00;;;1.90;;
5900;SDS011;2976;49.764;9.796;2024-03-17T09:18:30;3.33;;;1.97;;
5900;SDS011;2976;49.764;9.796;2024-03-17T09:20:58;1.70;;;1.60;;
5900;SDS011;2976;49.764;9.796;2024-03-17T09:23:24;4.10;;;2.47;;
5900;SDS011;2976;49.764;9.796;2024-03-17T09:25:55;2.80;;;2.13;;
5900;SDS011;2976;49.764;9.796;2024-03-17T09:28:21;2.27;;;2.07;;
5900;SDS011;2976;49.764;9.796;2024-03-17T09:30:47;2.20;;;2.00;;
5900;SDS011;2976;49.764;9.796;2024-03-17T09:33:12;2.13;;;2.03;;
5900;SDS011;2976;49.764;9.796;2024-03-17T09:35:38;2.90;;;1.90;;
5900;SDS011;2976;49.764;9.796;2024-03-17T09:38:03;2.83;;;2.40;;
5900;SDS011;2976;49.764;9.796;2024-03-17T09:40:29;2.77;;;1.87;;
5900;SDS011;2976;49.764;9.796;2024-03-17T09:42:55;2.03;;;1.93;;
5900;SDS011;2976;49.764;9.796;2024-03-17T09:45:21;2.57;;;1.53;;
5900;SDS011;2976;49.764;9.796;2024-03-17T09:47:49;1.97;;;1.87;;
5900;SDS011;2976;49.764;9.796;2024-03-17T09:50:16;2.90;;;1.80;;
5900;SDS011;2976;49.764;9.796;2024-03-17T09:52:44;3.07;;;2.20;;
5900;SDS011;2976;49.764;9.796;2024-03-17T09:55:16;2.50;;;2.30;;
5900;SDS011;2976;49.764;9.796;2024-03-17T09:57:43;3.40;;;1.53;;
5900;SDS011;2976;49.764;9.796;2024-03-17T10:00:10;4.90;;;1.73;;
5900;SDS011;2976;49.764;9.796;2024-03-17T10:02:43;3.20;;;2.73;;
5900;SDS011;2976;49.764;9.796;2024-03-17T10:05:19;3.80;;;2.37;;
5900;SDS011;2976;49.764;9.796;2024-03-17T10:07:49;4.73;;;2.63;;
5900;SDS011;2976;49.764;9.796;2024-03-17T10:10:16;3.30;;;2.50;;
5900;SDS011;2976;49.764;9.796;2024-03-17T10:12:43;2.40;;;2.20;;
5900;SDS011;2976;49.764;9.796;2024-03-17T10:15:13;3.43;;;2.17;;
5900;SDS011;2976;49.764;9.796;2024-03-17T10:17:39;3.00;;;1.90;;
5900;SDS011;2976;49.764;9.796;2024-03-17T10:20:37;2.47;;;2.00;;
5900;SDS011;2976;49.764;9.796;2024-03-17T10:23:00;1.77;;;1.67;;
5900;SDS011;2976;49.764;9.796;2024-03-17T10:25:34;4.60;;;2.10;;
5900;SDS011;2976;49.764;9.796;2024-03-17T10:28:04;6.20;;;2.70;;
5900;SDS011;2976;49.764;9.796;2024-03-17T10:30:39;6.37;;;3.27;;
5900;SDS011;2976;49.764;9.796;2024-03-17T10:33:05;5.33;;;2.60;;
5900;SDS011;2976;49.764;9.796;2024-03-17T10:35:36;3.00;;;2.40;;
5900;SDS011;2976;49.764;9.796;2024-03-17T10:38:06;4.73;;;2.17;;
5900;SDS011;2976;49.764;9.796;2024-03-17T10:40:33;2.53;;;2.33;;
5900;SDS011;2976;49.764;9.796;2024-03-17T10:43:01;3.43;;;2.50;;
5900;SDS011;2976;49.764;9.796;2024-03-17T10:45:27;7.80;;;2.50;;
5900;SDS011;2976;49.764;9.796;2024-03-17T10:48:00;2.57;;;2.37;;
5900;SDS011;2976;49.764;9.796;2024-03-17T10:50:29;2.07;;;1.97;;
5900;SDS011;2976;49.764;9.796;2024-03-17T10:52:58;3.60;;;2.60;;
5900;SDS011;2976;49.764;9.796;2024-03-17T10:55:37;2.30;;;2.07;;
5900;SDS011;2976;49.764;9.796;2024-03-17T10:58:05;4.10;;;2.27;;
5900;SDS011;2976;49.764;9.796;2024-03-17T11:00:42;4.20;;;2.53;;
5900;SDS011;2976;49.764;9.796;2024-03-17T11:03:08;4.30;;;2.77;;
5900;SDS011;2976;49.764;9.796;2024-03-17T11:05:36;3.47;;;2.77;;
5900;SDS011;2976;49.764;9.796;2024-03-17T11:08:02;2.80;;;2.30;;
5900;SDS011;2976;49.764;9.796;2024-03-17T11:10:29;2.23;;;1.83;;
5900;SDS011;2976;49.764;9.796;2024-03-17T11:13:01;3.07;;;2.77;;
5900;SDS011;2976;49.764;9.796;2024-03-17T11:20:35;4.17;;;2.70;;
5900;SDS011;2976;49.764;9.796;2024-03-17T11:23:30;2.53;;;2.33;;
5900;SDS011;2976;49.764;9.796;2024-03-17T11:25:56;3.97;;;3.30;;
5900;SDS011;2976;49.764;9.796;2024-03-17T11:33:57;2.97;;;2.70;;
5900;SDS011;2976;49.764;9.796;2024-03-17T11:46:40;3.20;;;2.50;;
5900;SDS011;2976;49.764;9.796;2024-03-17T11:49:31;3.03;;;2.43;;
5900;SDS011;2976;49.764;9.796;2024-03-17T11:52:00;7.43;;;2.83;;
5900;SDS011;2976;49.764;9.796;2024-03-17T11:54:30;2.80;;;2.60;;
5900;SDS011;2976;49.764;9.796;2024-03-17T11:57:01;5.60;;;2.50;;
5900;SDS011;2976;49.764;9.796;2024-03-17T11:59:29;2.47;;;2.27;;
5900;SDS011;2976;49.764;9.796;2024-03-17T12:01:55;5.63;;;3.03;;
5900;SDS011;2976;49.764;9.796;2024-03-17T12:04:21;2.57;;;2.37;;
5900;SDS011;2976;49.764;9.796;2024-03-17T12:06:48;3.47;;;2.33;;
5900;SDS011;2976;49.764;9.796;2024-03-17T12:09:20;4.30;;;2.60;;
5900;SDS011;2976;49.764;9.796;2024-03-17T12:14:36;2.53;;;2.37;;
5900;SDS011;2976;49.764;9.796;2024-03-17T12:19:29;2.20;;;2.00;;
5900;SDS011;2976;49.764;9.796;2024-03-17T12:21:56;2.20;;;2.10;;
5900;SDS011;2976;49.764;9.796;2024-03-17T12:24:26;5.30;;;2.17;;
5900;SDS011;2976;49.764;9.796;2024-03-17T12:26:54;7.90;;;2.77;;
5900;SDS011;2976;49.764;9.796;2024-03-17T12:29:26;3.00;;;2.23;;
5900;SDS011;2976;49.764;9.796;2024-03-17T12:31:58;5.30;;;2.57;;
5900;SDS011;2976;49.764;9.796;2024-03-17T12:34:36;2.37;;;2.17;;
5900;SDS011;2976;49.764;9.796;2024-03-17T12:37:02;3.70;;;2.60;;
5900;SDS011;2976;49.764;9.796;2024-03-17T12:39:32;6.60;;;2.83;;
5900;SDS011;2976;49.764;9.796;2024-03-17T12:42:08;3.60;;;2.60;;
5900;SDS011;2976;49.764;9.796;2024-03-17T12:44:55;5.53;;;2.30;;
5900;SDS011;2976;49.764;9.796;2024-03-17T12:47:26;7.33;;;3.37;;
5900;SDS011;2976;49.764;9.796;2024-03-17T12:49:56;2.40;;;2.17;;
5900;SDS011;2976;49.764;9.796;2024-03-17T12:52:23;3.33;;;2.33;;
5900;SDS011;2976;49.764;9.796;2024-03-17T12:55:00;2.93;;;2.37;;
5900;SDS011;2976;49.764;9.796;2024-03-17T12:57:45;5.57;;;2.80;;
5900;SDS011;2976;49.764;9.796;2024-03-17T13:00:31;2.83;;;1.97;;
5900;SDS011;2976;49.764;9.796;2024-03-17T13:02:57;2.23;;;2.00;;
5900;SDS011;2976;49.764;9.796;2024-03-17T13:05:23;1.97;;;1.87;;
5900;SDS011;2976;49.764;9.796;2024-03-17T13:07:49;7.27;;;2.50;;
5900;SDS011;2976;49.764;9.796;2024-03-17T13:10:16;5.40;;;2.13;;
5900;SDS011;2976;49.764;9.796;2024-03-17T13:12:42;4.80;;;2.07;;
5900;SDS011;2976;49.764;9.796;2024-03-17T13:15:13;2.30;;;2.10;;
5900;SDS011;2976;49.764;9.796;2024-03-17T13:17:41;3.23;;;2.20;;
5900;SDS011;2976;49.764;9.796;2024-03-17T13:20:08;2.77;;;2.57;;
5900;SDS011;2976;49.764;9.796;2024-03-17T13:22:45;6.23;;;2.63;;
5900;SDS011;2976;49.764;9.796;2024-03-17T13:25:14;3.30;;;3.00;;
5900;SDS011;2976;49.764;9.796;2024-03-17T13:27:41;3.20;;;2.40;;
5900;SDS011;2976;49.764;9.796;2024-03-17T13:30:08;4.90;;;2.30;;
5900;SDS011;2976;49.764;9.796;2024-03-17T13:32:34;2.20;;;2.00;;
5900;SDS011;2976;49.764;9.796;2024-03-17T13:35:01;6.77;;;3.20;;
5900;SDS011;2976;49.764;9.796;2024-03-17T13:37:27;9.83;;;3.00;;
5900;SDS011;2976;49.764;9.796;2024-03-17T13:39:53;5.60;;;3.00;;
5900;SDS011;2976;49.764;9.796;2024-03-17T13:42:18;3.13;;;2.70;;
5900;SDS011;2976;49.764;9.796;2024-03-17T13:44:45;2.80;;;2.40;;
5900;SDS011;2976;49.764;9.796;2024-03-17T13:47:11;5.13;;;2.73;;
5900;SDS011;2976;49.764;9.796;2024-03-17T13:49:39;4.17;;;2.57;;
5900;SDS011;2976;49.764;9.796;2024-03-17T13:52:04;4.83;;;2.80;;
5900;SDS011;2976;49.764;9.796;2024-03-17T13:54:30;2.77;;;2.30;;
5900;SDS011;2976;49.764;9.796;2024-03-17T13:56:56;2.60;;;2.40;;
5900;SDS011;2976;49.764;9.796;2024-03-17T13:59:23;2.83;;;2.50;;
5900;SDS011;2976;49.764;9.796;2024-03-17T14:01:52;5.33;;;2.63;;
5900;SDS011;2976;49.764;9.796;2024-03-17T14:04:17;5.70;;;3.10;;
5900;SDS011;2976;49.764;9.796;2024-03-17T14:06:44;5.33;;;2.40;;
5900;SDS011;2976;49.764;9.796;2024-03-17T14:09:17;3.13;;;2.10;;
5900;SDS011;2976;49.764;9.796;2024-03-17T14:11:45;7.47;;;2.50;;
5900;SDS011;2976;49.764;9.796;2024-03-17T14:14:11;4.20;;;2.73;;
5900;SDS011;2976;49.764;9.796;2024-03-17T14:16:37;2.63;;;2.43;;
5900;SDS011;2976;49.764;9.796;2024-03-17T14:19:04;4.23;;;2.70;;
5900;SDS011;2976;49.764;9.796;2024-03-17T14:21:29;8.17;;;3.40;;
5900;SDS011;2976;49.764;9.796;2024-03-17T14:23:55;2.47;;;2.27;;
5900;SDS011;2976;49.764;9.796;2024-03-17T14:26:21;4.20;;;2.70;;
5900;SDS011;2976;49.764;9.796;2024-03-17T14:28:48;3.20;;;2.90;;
5900;SDS011;2976;49.764;9.796;2024-03-17T14:31:15;2.40;;;2.20;;
5900;SDS011;2976;49.764;9.796;2024-03-17T14:33:43;3.93;;;3.23;;
5900;SDS011;2976;49.764;9.796;2024-03-17T14:36:10;7.10;;;2.77;;
5900;SDS011;2976;49.764;9.796;2024-03-17T14:38:35;6.73;;;3.10;;
5900;SDS011;2976;49.764;9.796;2024-03-17T14:41:01;3.17;;;2.67;;
5900;SDS011;2976;49.764;9.796;2024-03-17T14:43:29;4.30;;;2.37;;
5900;SDS011;2976;49.764;9.796;2024-03-17T14:45:55;3.30;;;2.57;;
5900;SDS011;2976;49.764;9.796;2024-03-17T14:48:20;4.63;;;2.30;;
5900;SDS011;2976;49.764;9.796;2024-03-17T14:50:46;4.90;;;2.20;;
5900;SDS011;2976;49.764;9.796;2024-03-17T14:53:12;2.47;;;2.27;;
5900;SDS011;2976;49.764;9.796;2024-03-17T14:55:37;2.00;;;1.80;;
5900;SDS011;2976;49.764;9.796;2024-03-17T14:58:03;4.17;;;2.23;;
5900;SDS011;2976;49.764;9.796;2024-03-17T15:00:31;2.10;;;1.50;;
5900;SDS011;2976;49.764;9.796;2024-03-17T15:02:57;3.27;;;2.27;;
5900;SDS011;2976;49.764;9.796;2024-03-17T15:05:22;2.23;;;2.00;;
5900;SDS011;2976;49.764;9.796;2024-03-17T15:07:49;4.50;;;2.23;;
5900;SDS011;2976;49.764;9.796;2024-03-17T15:10:15;6.60;;;2.20;;
5900;SDS011;2976;49.764;9.796;2024-03-17T15:12:45;4.30;;;2.17;;
5900;SDS011;2976;49.764;9.796;2024-03-17T15:15:13;2.53;;;1.90;;
5900;SDS011;2976;49.764;9.796;2024-03-17T15:17:39;4.43;;;2.00;;
5900;SDS011;2976;49.764;9.796;2024-03-17T15:20:05;3.10;;;2.30;;
5900;SDS011;2976;49.764;9.796;2024-03-17T15:22:41;2.90;;;2.17;;
5900;SDS011;2976;49.764;9.796;2024-03-17T15:25:08;4.00;;;2.00;;
5900;SDS011;2976;49.764;9.796;2024-03-17T15:27:34;5.63;;;2.20;;
5900;SDS011;2976;49.764;9.796;2024-03-17T15:30:00;3.10;;;2.30;;
5900;SDS011;2976;49.764;9.796;2024-03-17T15:32:25;4.07;;;2.80;;
5900;SDS011;2976;49.764;9.796;2024-03-17T15:34:51;7.60;;;2.30;;
5900;SDS011;2976;49.764;9.796;2024-03-17T15:37:17;1.70;;;1.60;;
5900;SDS011;2976;49.764;9.796;2024-03-17T15:39:43;5.27;;;2.23;;
5900;SDS011;2976;49.764;9.796;2024-03-17T15:42:08;5.83;;;2.40;;
5900;SDS011;2976;49.764;9.796;2024-03-17T15:44:37;3.40;;;2.30;;
5900;SDS011;2976;49.764;9.796;2024-03-17T15:47:03;1.50;;;1.40;;
5900;SDS011;2976;49.764;9.796;2024-03-17T15:49:30;3.30;;;2.10;;